sensor_id;sensor_type;location;lat;lon;timestamp;temperature;humidity
4399;DHT22;2213;49.720;7.296;2023-07-31T00:01:44;18.80;99.90
4399;DHT22;2213;49.720;7.296;2023-07-31T00:04:16;18.80;99.90
4399;DHT22;2213;49.720;7.296;2023-07-31T00:06:45;18.70;99.90
4399;DHT22;2213;49.720;7.296;2023-07-31T00:09:16;18.80;99.90
4399;DHT22;2213;49.720;7.296;2023-07-31T00:11:47;18.70;99.90
4399;DHT22;2213;49.720;7.296;2023-07-31T00:14:17;18.80;99.90
4399;DHT22;2213;49.720;7.296;2023-07-31T00:16:47;18.80;99.90
4399;DHT22;2213;49.720;7.296;2023-07-31T00:19:20;18.80;99.90
4399;DHT22;2213;49.720;7.296;2023-07-31T00:21:50;18.80;99.90
4399;DHT22;2213;49.720;7.296;2023-07-31T00:24:20;18.70;99.90
4399;DHT22;2213;49.720;7.296;2023-07-31T00:26:51;18.80;99.90
4399;DHT22;2213;49.720;7.296;2023-07-31T00:29:21;18.60;99.90
4399;DHT22;2213;49.720;7.296;2023-07-31T00:31:52;18.70;99.90
4399;DHT22;2213;49.720;7.296;2023-07-31T00:34:24;18.60;99.90
4399;DHT22;2213;49.720;7.296;2023-07-31T00:36:54;18.80;99.90
4399;DHT22;2213;49.720;7.296;2023-07-31T00:39:23;18.80;99.90
4399;DHT22;2213;49.720;7.296;2023-07-31T00:41:53;18.70;99.90
4399;DHT22;2213;49.720;7.296;2023-07-31T00:44:23;18.70;99.90
4399;DHT22;2213;49.720;7.296;2023-07-31T00:46:53;18.80;99.90
4399;DHT22;2213;49.720;7.296;2023-07-31T00:49:24;18.70;99.90
4399;DHT22;2213;49.720;7.296;2023-07-31T00:51:54;18.70;99.90
4399;DHT22;2213;49.720;7.296;2023-07-31T00:54:26;18.80;99.90
4399;DHT22;2213;49.720;7.296;2023-07-31T00:56:56;18.70;99.90
4399;DHT22;2213;49.720;7.296;2023-07-31T00:59:28;18.80;99.90
4399;DHT22;2213;49.720;7.296;2023-07-31T01:01:58;18.80;99.90
4399;DHT22;2213;49.720;7.296;2023-07-31T01:04:29;18.80;99.90
4399;DHT22;2213;49.720;7.296;2023-07-31T01:07:03;18.60;99.90
4399;DHT22;2213;49.720;7.296;2023-07-31T01:09:45;18.70;99.90
4399;DHT22;2213;49.720;7.296;2023-07-31T01:12:24;18.60;99.90
4399;DHT22;2213;49.720;7.296;2023-07-31T01:15:07;18.60;99.90
4399;DHT22;2213;49.720;7.296;2023-07-31T01:17:38;18.70;99.90
4399;DHT22;2213;49.720;7.296;2023-07-31T01:20:12;18.70;99.90
4399;DHT22;2213;49.720;7.296;2023-07-31T01:23:01;18.60;99.90
4399;DHT22;2213;49.720;7.296;2023-07-31T01:26:02;18.60;99.90
4399;DHT22;2213;49.720;7.296;2023-07-31T01:28:45;18.50;99.90
4399;DHT22;2213;49.720;7.296;2023-07-31T01:31:23;18.50;99.90
4399;DHT22;2213;49.720;7.296;2023-07-31T01:33:57;18.50;99.90
4399;DHT22;2213;49.720;7.296;2023-07-31T01:36:29;18.50;99.90
4399;DHT22;2213;49.720;7.296;2023-07-31T01:39:00;18.50;99.90
4399;DHT22;2213;49.720;7.296;2023-07-31T01:41:32;18.50;99.90
4399;DHT22;2213;49.720;7.296;2023-07-31T01:44:02;18.60;99.90
4399;DHT22;2213;49.720;7.296;2023-07-31T01:46:33;18.50;99.90
4399;DHT22;2213;49.720;7.296;2023-07-31T01:49:03;18.50;99.90
4399;DHT22;2213;49.720;7.296;2023-07-31T01:51:34;18.50;99.90
4399;DHT22;2213;49.720;7.296;2023-07-31T01:54:06;18.50;99.90
4399;DHT22;2213;49.720;7.296;2023-07-31T01:56:38;18.50;99.90
4399;DHT22;2213;49.720;7.296;2023-07-31T01:59:10;18.50;99.90
4399;DHT22;2213;49.720;7.296;2023-07-31T02:01:39;18.50;99.90
4399;DHT22;2213;49.720;7.296;2023-07-31T02:04:09;18.50;99.90
4399;DHT22;2213;49.720;7.296;2023-07-31T02:06:40;18.50;99.90
4399;DHT22;2213;49.720;7.296;2023-07-31T02:09:11;18.50;99.90
4399;DHT22;2213;49.720;7.296;2023-07-31T02:11:42;18.50;99.90
4399;DHT22;2213;49.720;7.296;2023-07-31T02:14:14;18.40;99.90
4399;DHT22;2213;49.720;7.296;2023-07-31T02:16:45;18.30;99.90
4399;DHT22;2213;49.720;7.296;2023-07-31T02:19:15;18.30;99.90
4399;DHT22;2213;49.720;7.296;2023-07-31T02:21:46;18.30;99.90
4399;DHT22;2213;49.720;7.296;2023-07-31T02:24:15;18.30;99.90
4399;DHT22;2213;49.720;7.296;2023-07-31T02:26:46;18.30;99.90
4399;DHT22;2213;49.720;7.296;2023-07-31T02:29:16;18.30;99.90
4399;DHT22;2213;49.720;7.296;2023-07-31T02:31:45;18.20;99.90
4399;DHT22;2213;49.720;7.296;2023-07-31T02:34:14;18.20;99.90
4399;DHT22;2213;49.720;7.296;2023-07-31T02:36:45;18.20;99.90
4399;DHT22;2213;49.720;7.296;2023-07-31T02:39:14;18.30;99.90
4399;DHT22;2213;49.720;7.296;2023-07-31T02:41:46;18.20;99.90
4399;DHT22;2213;49.720;7.296;2023-07-31T02:44:16;18.20;99.90
4399;DHT22;2213;49.720;7.296;2023-07-31T02:46:45;18.10;99.90
4399;DHT22;2213;49.720;7.296;2023-07-31T02:49:16;18.10;99.90
4399;DHT22;2213;49.720;7.296;2023-07-31T02:51:47;18.10;99.90
4399;DHT22;2213;49.720;7.296;2023-07-31T02:54:18;18.10;99.90
4399;DHT22;2213;49.720;7.296;2023-07-31T02:56:51;18.00;99.90
4399;DHT22;2213;49.720;7.296;2023-07-31T02:59:21;18.00;99.90
4399;DHT22;2213;49.720;7.296;2023-07-31T03:01:50;18.00;99.90
4399;DHT22;2213;49.720;7.296;2023-07-31T03:04:20;17.90;99.90
4399;DHT22;2213;49.720;7.296;2023-07-31T03:06:49;17.90;99.90
4399;DHT22;2213;49.720;7.296;2023-07-31T03:09:18;17.90;99.90
4399;DHT22;2213;49.720;7.296;2023-07-31T03:11:48;17.90;99.90
4399;DHT22;2213;49.720;7.296;2023-07-31T03:14:20;17.90;99.90
4399;DHT22;2213;49.720;7.296;2023-07-31T03:16:50;17.90;99.90
4399;DHT22;2213;49.720;7.296;2023-07-31T03:19:20;17.90;99.90
4399;DHT22;2213;49.720;7.296;2023-07-31T03:21:51;17.90;99.90
4399;DHT22;2213;49.720;7.296;2023-07-31T03:24:21;17.90;99.90
4399;DHT22;2213;49.720;7.296;2023-07-31T03:26:53;17.80;99.90
4399;DHT22;2213;49.720;7.296;2023-07-31T03:29:23;17.80;99.90
4399;DHT22;2213;49.720;7.296;2023-07-31T03:31:53;17.70;99.90
4399;DHT22;2213;49.720;7.296;2023-07-31T03:34:24;17.70;99.90
4399;DHT22;2213;49.720;7.296;2023-07-31T03:36:55;17.70;99.90
4399;DHT22;2213;49.720;7.296;2023-07-31T03:39:25;17.60;99.90
4399;DHT22;2213;49.720;7.296;2023-07-31T03:41:55;17.60;99.90
4399;DHT22;2213;49.720;7.296;2023-07-31T03:44:26;17.60;99.90
4399;DHT22;2213;49.720;7.296;2023-07-31T03:46:56;17.60;99.90
4399;DHT22;2213;49.720;7.296;2023-07-31T03:49:26;17.50;99.90
4399;DHT22;2213;49.720;7.296;2023-07-31T03:51:55;17.50;99.90
4399;DHT22;2213;49.720;7.296;2023-07-31T03:54:25;17.50;99.90
4399;DHT22;2213;49.720;7.296;2023-07-31T03:56:56;17.40;99.90
4399;DHT22;2213;49.720;7.296;2023-07-31T03:59:26;17.40;99.90
4399;DHT22;2213;49.720;7.296;2023-07-31T04:01:56;17.40;99.90
4399;DHT22;2213;49.720;7.296;2023-07-31T04:04:27;17.40;99.90
4399;DHT22;2213;49.720;7.296;2023-07-31T04:06:57;17.40;99.90
4399;DHT22;2213;49.720;7.296;2023-07-31T04:09:26;17.30;99.90
4399;DHT22;2213;49.720;7.296;2023-07-31T04:11:59;17.40;99.90
4399;DHT22;2213;49.720;7.296;2023-07-31T04:14:30;17.40;99.90
4399;DHT22;2213;49.720;7.296;2023-07-31T04:17:01;17.40;99.90
4399;DHT22;2213;49.720;7.296;2023-07-31T04:19:32;17.40;99.90
4399;DHT22;2213;49.720;7.296;2023-07-31T04:22:03;17.40;99.90
4399;DHT22;2213;49.720;7.296;2023-07-31T04:24:32;17.40;99.90
4399;DHT22;2213;49.720;7.296;2023-07-31T04:27:04;17.40;99.90
4399;DHT22;2213;49.720;7.296;2023-07-31T04:29:35;17.40;99.90
4399;DHT22;2213;49.720;7.296;2023-07-31T04:32:05;17.30;99.90
4399;DHT22;2213;49.720;7.296;2023-07-31T04:34:36;17.30;99.90
4399;DHT22;2213;49.720;7.296;2023-07-31T04:37:07;17.40;99.90
4399;DHT22;2213;49.720;7.296;2023-07-31T04:39:37;17.40;99.90
4399;DHT22;2213;49.720;7.296;2023-07-31T04:42:09;17.40;99.90
4399;DHT22;2213;49.720;7.296;2023-07-31T04:44:38;17.50;99.90
4399;DHT22;2213;49.720;7.296;2023-07-31T04:47:07;17.50;99.90
4399;DHT22;2213;49.720;7.296;2023-07-31T04:49:37;17.30;99.90
4399;DHT22;2213;49.720;7.296;2023-07-31T04:52:07;17.30;99.90
4399;DHT22;2213;49.720;7.296;2023-07-31T04:54:38;17.30;99.90
4399;DHT22;2213;49.720;7.296;2023-07-31T04:57:10;17.30;99.90
4399;DHT22;2213;49.720;7.296;2023-07-31T04:59:39;17.20;99.90
4399;DHT22;2213;49.720;7.296;2023-07-31T05:02:11;17.20;99.90
4399;DHT22;2213;49.720;7.296;2023-07-31T05:04:41;17.30;99.90
4399;DHT22;2213;49.720;7.296;2023-07-31T05:07:11;17.40;99.90
4399;DHT22;2213;49.720;7.296;2023-07-31T05:09:42;17.40;99.90
4399;DHT22;2213;49.720;7.296;2023-07-31T05:12:15;17.40;99.90
4399;DHT22;2213;49.720;7.296;2023-07-31T05:14:44;17.40;99.90
4399;DHT22;2213;49.720;7.296;2023-07-31T05:17:15;17.40;99.90
4399;DHT22;2213;49.720;7.296;2023-07-31T05:19:45;17.40;99.90
4399;DHT22;2213;49.720;7.296;2023-07-31T05:22:16;17.40;99.90
4399;DHT22;2213;49.720;7.296;2023-07-31T05:24:46;17.30;99.90
4399;DHT22;2213;49.720;7.296;2023-07-31T05:27:20;17.30;99.90
4399;DHT22;2213;49.720;7.296;2023-07-31T05:29:51;17.30;99.90
4399;DHT22;2213;49.720;7.296;2023-07-31T05:32:21;17.40;99.90
4399;DHT22;2213;49.720;7.296;2023-07-31T05:34:52;17.40;99.90
4399;DHT22;2213;49.720;7.296;2023-07-31T05:37:22;17.50;99.90
4399;DHT22;2213;49.720;7.296;2023-07-31T05:39:51;17.40;99.90
4399;DHT22;2213;49.720;7.296;2023-07-31T05:42:23;17.40;99.90
4399;DHT22;2213;49.720;7.296;2023-07-31T05:44:52;17.50;99.90
4399;DHT22;2213;49.720;7.296;2023-07-31T05:47:22;17.40;99.90
4399;DHT22;2213;49.720;7.296;2023-07-31T05:49:53;17.40;99.90
4399;DHT22;2213;49.720;7.296;2023-07-31T05:52:22;17.40;99.90
4399;DHT22;2213;49.720;7.296;2023-07-31T05:54:52;17.50;99.90
4399;DHT22;2213;49.720;7.296;2023-07-31T05:57:23;17.50;99.90
4399;DHT22;2213;49.720;7.296;2023-07-31T05:59:53;17.50;99.90
4399;DHT22;2213;49.720;7.296;2023-07-31T06:02:23;17.50;99.90
4399;DHT22;2213;49.720;7.296;2023-07-31T06:04:54;17.60;99.90
4399;DHT22;2213;49.720;7.296;2023-07-31T06:07:25;17.50;99.90
4399;DHT22;2213;49.720;7.296;2023-07-31T06:09:55;17.50;99.90
4399;DHT22;2213;49.720;7.296;2023-07-31T06:12:32;17.50;99.90
4399;DHT22;2213;49.720;7.296;2023-07-31T06:15:03;17.60;99.90
4399;DHT22;2213;49.720;7.296;2023-07-31T06:17:33;17.40;99.90
4399;DHT22;2213;49.720;7.296;2023-07-31T06:20:05;17.50;99.90
4399;DHT22;2213;49.720;7.296;2023-07-31T06:22:36;17.40;99.90
4399;DHT22;2213;49.720;7.296;2023-07-31T06:25:07;17.50;99.90
4399;DHT22;2213;49.720;7.296;2023-07-31T06:27:43;17.50;99.90
4399;DHT22;2213;49.720;7.296;2023-07-31T06:30:13;17.50;99.90
4399;DHT22;2213;49.720;7.296;2023-07-31T06:32:44;17.50;99.90
4399;DHT22;2213;49.720;7.296;2023-07-31T06:35:15;17.70;99.90
4399;DHT22;2213;49.720;7.296;2023-07-31T06:37:45;17.50;99.90
4399;DHT22;2213;49.720;7.296;2023-07-31T06:40:15;17.50;99.90
4399;DHT22;2213;49.720;7.296;2023-07-31T06:42:47;17.60;99.90
4399;DHT22;2213;49.720;7.296;2023-07-31T06:45:17;17.60;99.90
4399;DHT22;2213;49.720;7.296;2023-07-31T06:47:48;17.60;99.90
4399;DHT22;2213;49.720;7.296;2023-07-31T06:50:19;17.60;99.90
4399;DHT22;2213;49.720;7.296;2023-07-31T06:52:49;17.70;99.90
4399;DHT22;2213;49.720;7.296;2023-07-31T06:55:22;17.70;99.90
4399;DHT22;2213;49.720;7.296;2023-07-31T06:57:55;17.70;99.90
4399;DHT22;2213;49.720;7.296;2023-07-31T07:00:25;17.90;99.90
4399;DHT22;2213;49.720;7.296;2023-07-31T07:02:55;18.00;99.90
4399;DHT22;2213;49.720;7.296;2023-07-31T07:05:30;18.00;99.90
4399;DHT22;2213;49.720;7.296;2023-07-31T07:08:00;18.10;99.90
4399;DHT22;2213;49.720;7.296;2023-07-31T07:10:31;18.10;99.90
4399;DHT22;2213;49.720;7.296;2023-07-31T07:13:02;18.10;99.90
4399;DHT22;2213;49.720;7.296;2023-07-31T07:15:32;18.10;99.90
4399;DHT22;2213;49.720;7.296;2023-07-31T07:18:03;18.10;99.90
4399;DHT22;2213;49.720;7.296;2023-07-31T07:20:35;18.10;99.90
4399;DHT22;2213;49.720;7.296;2023-07-31T07:23:06;18.20;99.90
4399;DHT22;2213;49.720;7.296;2023-07-31T07:25:38;18.30;99.90
4399;DHT22;2213;49.720;7.296;2023-07-31T07:28:09;18.40;99.90
4399;DHT22;2213;49.720;7.296;2023-07-31T07:30:39;18.40;99.90
4399;DHT22;2213;49.720;7.296;2023-07-31T07:33:10;18.30;99.90
4399;DHT22;2213;49.720;7.296;2023-07-31T07:35:40;18.40;99.90
4399;DHT22;2213;49.720;7.296;2023-07-31T07:38:13;18.40;99.90
4399;DHT22;2213;49.720;7.296;2023-07-31T07:40:43;18.50;99.90
4399;DHT22;2213;49.720;7.296;2023-07-31T07:43:15;18.50;99.90
4399;DHT22;2213;49.720;7.296;2023-07-31T07:45:46;18.50;99.90
4399;DHT22;2213;49.720;7.296;2023-07-31T07:48:15;18.70;99.90
4399;DHT22;2213;49.720;7.296;2023-07-31T07:50:45;18.60;99.90
4399;DHT22;2213;49.720;7.296;2023-07-31T07:53:15;18.50;99.90
4399;DHT22;2213;49.720;7.296;2023-07-31T07:55:46;18.60;99.90
4399;DHT22;2213;49.720;7.296;2023-07-31T07:58:17;18.70;99.90
4399;DHT22;2213;49.720;7.296;2023-07-31T08:00:50;18.70;99.90
4399;DHT22;2213;49.720;7.296;2023-07-31T08:03:19;18.70;99.90
4399;DHT22;2213;49.720;7.296;2023-07-31T08:05:49;18.80;99.90
4399;DHT22;2213;49.720;7.296;2023-07-31T08:08:20;18.70;99.90
4399;DHT22;2213;49.720;7.296;2023-07-31T08:10:49;18.70;99.90
4399;DHT22;2213;49.720;7.296;2023-07-31T08:13:21;18.80;99.90
4399;DHT22;2213;49.720;7.296;2023-07-31T08:15:51;18.80;99.90
4399;DHT22;2213;49.720;7.296;2023-07-31T08:18:21;18.90;99.90
4399;DHT22;2213;49.720;7.296;2023-07-31T08:20:51;18.90;99.90
4399;DHT22;2213;49.720;7.296;2023-07-31T08:23:20;19.00;99.90
4399;DHT22;2213;49.720;7.296;2023-07-31T08:25:50;19.10;99.90
4399;DHT22;2213;49.720;7.296;2023-07-31T08:28:21;19.00;99.90
4399;DHT22;2213;49.720;7.296;2023-07-31T08:30:51;19.20;99.90
4399;DHT22;2213;49.720;7.296;2023-07-31T08:33:20;19.00;99.90
4399;DHT22;2213;49.720;7.296;2023-07-31T08:35:51;19.20;99.90
4399;DHT22;2213;49.720;7.296;2023-07-31T08:38:22;19.20;99.90
4399;DHT22;2213;49.720;7.296;2023-07-31T08:40:54;19.30;99.90
4399;DHT22;2213;49.720;7.296;2023-07-31T08:43:27;19.40;99.90
4399;DHT22;2213;49.720;7.296;2023-07-31T08:45:57;19.40;99.90
4399;DHT22;2213;49.720;7.296;2023-07-31T08:48:28;19.50;99.90
4399;DHT22;2213;49.720;7.296;2023-07-31T08:51:00;19.50;99.90
4399;DHT22;2213;49.720;7.296;2023-07-31T08:53:30;19.30;99.90
4399;DHT22;2213;49.720;7.296;2023-07-31T08:56:01;19.50;99.90
4399;DHT22;2213;49.720;7.296;2023-07-31T08:58:35;19.50;99.90
4399;DHT22;2213;49.720;7.296;2023-07-31T09:01:07;19.60;99.90
4399;DHT22;2213;49.720;7.296;2023-07-31T09:03:39;19.50;99.90
4399;DHT22;2213;49.720;7.296;2023-07-31T09:06:14;19.60;99.90
4399;DHT22;2213;49.720;7.296;2023-07-31T09:08:48;19.70;99.90
4399;DHT22;2213;49.720;7.296;2023-07-31T09:11:19;19.70;99.90
4399;DHT22;2213;49.720;7.296;2023-07-31T09:13:53;19.80;99.90
4399;DHT22;2213;49.720;7.296;2023-07-31T09:16:29;19.80;99.90
4399;DHT22;2213;49.720;7.296;2023-07-31T09:18:59;19.60;99.90
4399;DHT22;2213;49.720;7.296;2023-07-31T09:21:31;19.70;99.90
4399;DHT22;2213;49.720;7.296;2023-07-31T09:24:01;19.90;99.90
4399;DHT22;2213;49.720;7.296;2023-07-31T09:26:32;19.90;99.90
4399;DHT22;2213;49.720;7.296;2023-07-31T09:29:07;19.90;99.90
4399;DHT22;2213;49.720;7.296;2023-07-31T09:31:48;19.90;99.90
4399;DHT22;2213;49.720;7.296;2023-07-31T09:34:18;20.00;99.90
4399;DHT22;2213;49.720;7.296;2023-07-31T09:36:49;19.90;99.90
4399;DHT22;2213;49.720;7.296;2023-07-31T09:39:21;20.10;99.90
4399;DHT22;2213;49.720;7.296;2023-07-31T09:41:54;20.10;99.90
4399;DHT22;2213;49.720;7.296;2023-07-31T09:44:39;20.10;99.90
4399;DHT22;2213;49.720;7.296;2023-07-31T09:47:21;20.20;99.90
4399;DHT22;2213;49.720;7.296;2023-07-31T09:49:53;20.30;99.90
4399;DHT22;2213;49.720;7.296;2023-07-31T09:52:26;20.20;99.90
4399;DHT22;2213;49.720;7.296;2023-07-31T09:54:55;20.20;99.90
4399;DHT22;2213;49.720;7.296;2023-07-31T09:57:26;20.20;99.90
4399;DHT22;2213;49.720;7.296;2023-07-31T09:59:58;20.10;99.90
4399;DHT22;2213;49.720;7.296;2023-07-31T10:02:30;20.10;99.90
4399;DHT22;2213;49.720;7.296;2023-07-31T10:05:04;20.10;99.90
4399;DHT22;2213;49.720;7.296;2023-07-31T10:07:37;20.30;99.90
4399;DHT22;2213;49.720;7.296;2023-07-31T10:10:08;20.20;99.90
4399;DHT22;2213;49.720;7.296;2023-07-31T10:12:38;20.20;99.90
4399;DHT22;2213;49.720;7.296;2023-07-31T10:15:11;20.40;99.90
4399;DHT22;2213;49.720;7.296;2023-07-31T10:17:41;20.40;99.90
4399;DHT22;2213;49.720;7.296;2023-07-31T10:20:12;20.40;99.90
4399;DHT22;2213;49.720;7.296;2023-07-31T10:22:44;20.50;99.90
4399;DHT22;2213;49.720;7.296;2023-07-31T10:25:15;20.60;99.90
4399;DHT22;2213;49.720;7.296;2023-07-31T10:27:47;20.60;99.90
4399;DHT22;2213;49.720;7.296;2023-07-31T10:30:21;20.60;99.90
4399;DHT22;2213;49.720;7.296;2023-07-31T10:32:53;20.70;99.90
4399;DHT22;2213;49.720;7.296;2023-07-31T10:35:25;20.70;99.90
4399;DHT22;2213;49.720;7.296;2023-07-31T10:37:54;20.90;99.90
4399;DHT22;2213;49.720;7.296;2023-07-31T10:40:26;20.90;99.90
4399;DHT22;2213;49.720;7.296;2023-07-31T10:42:56;20.90;99.90
4399;DHT22;2213;49.720;7.296;2023-07-31T10:45:32;21.00;99.90
4399;DHT22;2213;49.720;7.296;2023-07-31T10:48:05;21.10;99.90
4399;DHT22;2213;49.720;7.296;2023-07-31T10:50:48;21.10;99.90
4399;DHT22;2213;49.720;7.296;2023-07-31T10:53:26;21.00;99.90
4399;DHT22;2213;49.720;7.296;2023-07-31T10:55:59;20.90;99.90
4399;DHT22;2213;49.720;7.296;2023-07-31T10:58:31;21.00;99.90
4399;DHT22;2213;49.720;7.296;2023-07-31T11:01:04;21.20;99.90
4399;DHT22;2213;49.720;7.296;2023-07-31T11:03:43;21.20;99.90
4399;DHT22;2213;49.720;7.296;2023-07-31T11:06:15;21.20;99.90
4399;DHT22;2213;49.720;7.296;2023-07-31T11:08:47;21.40;99.90
4399;DHT22;2213;49.720;7.296;2023-07-31T11:11:18;21.30;99.90
4399;DHT22;2213;49.720;7.296;2023-07-31T11:13:49;21.30;99.70
4399;DHT22;2213;49.720;7.296;2023-07-31T11:16:22;21.30;99.70
4399;DHT22;2213;49.720;7.296;2023-07-31T11:18:53;21.30;99.90
4399;DHT22;2213;49.720;7.296;2023-07-31T11:21:24;21.20;99.60
4399;DHT22;2213;49.720;7.296;2023-07-31T11:23:56;21.20;99.70
4399;DHT22;2213;49.720;7.296;2023-07-31T11:26:27;21.20;99.50
4399;DHT22;2213;49.720;7.296;2023-07-31T11:28:58;21.20;99.70
4399;DHT22;2213;49.720;7.296;2023-07-31T11:31:29;21.20;99.70
4399;DHT22;2213;49.720;7.296;2023-07-31T11:34:05;21.30;99.80
4399;DHT22;2213;49.720;7.296;2023-07-31T11:36:34;21.30;99.70
4399;DHT22;2213;49.720;7.296;2023-07-31T11:39:05;21.30;99.80
4399;DHT22;2213;49.720;7.296;2023-07-31T11:41:36;21.40;99.90
4399;DHT22;2213;49.720;7.296;2023-07-31T11:44:10;21.40;99.70
4399;DHT22;2213;49.720;7.296;2023-07-31T11:46:58;21.30;99.70
4399;DHT22;2213;49.720;7.296;2023-07-31T11:49:31;21.20;99.80
4399;DHT22;2213;49.720;7.296;2023-07-31T11:52:04;21.10;99.90
4399;DHT22;2213;49.720;7.296;2023-07-31T11:54:35;21.30;99.90
4399;DHT22;2213;49.720;7.296;2023-07-31T11:57:07;21.40;99.90
4399;DHT22;2213;49.720;7.296;2023-07-31T11:59:38;21.40;99.80
4399;DHT22;2213;49.720;7.296;2023-07-31T12:02:09;21.30;99.80
4399;DHT22;2213;49.720;7.296;2023-07-31T12:04:39;21.40;99.90
4399;DHT22;2213;49.720;7.296;2023-07-31T12:07:09;21.30;99.90
4399;DHT22;2213;49.720;7.296;2023-07-31T12:09:51;21.20;99.90
4399;DHT22;2213;49.720;7.296;2023-07-31T12:12:22;21.30;99.70
4399;DHT22;2213;49.720;7.296;2023-07-31T12:14:52;21.30;99.90
4399;DHT22;2213;49.720;7.296;2023-07-31T12:17:25;21.20;99.80
4399;DHT22;2213;49.720;7.296;2023-07-31T12:19:55;21.20;99.80
4399;DHT22;2213;49.720;7.296;2023-07-31T12:22:27;21.30;99.80
4399;DHT22;2213;49.720;7.296;2023-07-31T12:24:57;21.40;99.90
4399;DHT22;2213;49.720;7.296;2023-07-31T12:27:32;21.40;99.80
4399;DHT22;2213;49.720;7.296;2023-07-31T12:30:04;21.50;99.80
4399;DHT22;2213;49.720;7.296;2023-07-31T12:32:55;21.40;99.80
4399;DHT22;2213;49.720;7.296;2023-07-31T12:35:30;21.40;99.90
4399;DHT22;2213;49.720;7.296;2023-07-31T12:38:04;21.30;99.90
4399;DHT22;2213;49.720;7.296;2023-07-31T12:40:37;21.10;99.90
4399;DHT22;2213;49.720;7.296;2023-07-31T12:43:06;21.10;99.90
4399;DHT22;2213;49.720;7.296;2023-07-31T12:45:37;21.00;99.90
4399;DHT22;2213;49.720;7.296;2023-07-31T12:48:08;21.20;99.90
4399;DHT22;2213;49.720;7.296;2023-07-31T12:50:38;21.00;99.90
4399;DHT22;2213;49.720;7.296;2023-07-31T12:53:07;21.10;99.90
4399;DHT22;2213;49.720;7.296;2023-07-31T12:55:37;21.10;99.90
4399;DHT22;2213;49.720;7.296;2023-07-31T12:58:07;21.20;99.90
4399;DHT22;2213;49.720;7.296;2023-07-31T13:00:36;21.30;99.90
4399;DHT22;2213;49.720;7.296;2023-07-31T13:03:05;21.30;99.90
4399;DHT22;2213;49.720;7.296;2023-07-31T13:05:41;21.40;99.90
4399;DHT22;2213;49.720;7.296;2023-07-31T13:08:11;21.20;99.90
4399;DHT22;2213;49.720;7.296;2023-07-31T13:10:42;21.20;99.90
4399;DHT22;2213;49.720;7.296;2023-07-31T13:13:13;21.10;99.90
4399;DHT22;2213;49.720;7.296;2023-07-31T13:15:44;21.20;99.90
4399;DHT22;2213;49.720;7.296;2023-07-31T13:18:16;21.10;99.90
4399;DHT22;2213;49.720;7.296;2023-07-31T13:20:46;21.20;99.90
4399;DHT22;2213;49.720;7.296;2023-07-31T13:23:15;21.20;99.90
4399;DHT22;2213;49.720;7.296;2023-07-31T13:25:45;21.10;99.90
4399;DHT22;2213;49.720;7.296;2023-07-31T13:28:14;21.00;99.90
4399;DHT22;2213;49.720;7.296;2023-07-31T13:30:44;21.10;99.90
4399;DHT22;2213;49.720;7.296;2023-07-31T13:33:16;21.10;99.90
4399;DHT22;2213;49.720;7.296;2023-07-31T13:36:03;21.00;99.90
4399;DHT22;2213;49.720;7.296;2023-07-31T13:38:33;20.90;99.90
4399;DHT22;2213;49.720;7.296;2023-07-31T13:41:02;21.00;99.90
4399;DHT22;2213;49.720;7.296;2023-07-31T13:43:33;21.00;99.90
4399;DHT22;2213;49.720;7.296;2023-07-31T13:46:02;20.90;99.90
4399;DHT22;2213;49.720;7.296;2023-07-31T13:48:36;20.80;99.90
4399;DHT22;2213;49.720;7.296;2023-07-31T13:51:05;20.60;99.90
4399;DHT22;2213;49.720;7.296;2023-07-31T13:53:36;20.80;99.90
4399;DHT22;2213;49.720;7.296;2023-07-31T13:56:06;20.60;99.90
4399;DHT22;2213;49.720;7.296;2023-07-31T13:58:37;20.70;99.90
4399;DHT22;2213;49.720;7.296;2023-07-31T14:01:07;20.60;99.90
4399;DHT22;2213;49.720;7.296;2023-07-31T14:03:37;20.70;99.90
4399;DHT22;2213;49.720;7.296;2023-07-31T14:06:07;20.80;99.90
4399;DHT22;2213;49.720;7.296;2023-07-31T14:08:37;21.00;99.90
4399;DHT22;2213;49.720;7.296;2023-07-31T14:11:08;20.90;99.90
4399;DHT22;2213;49.720;7.296;2023-07-31T14:13:37;20.80;99.90
4399;DHT22;2213;49.720;7.296;2023-07-31T14:16:08;21.00;99.90
4399;DHT22;2213;49.720;7.296;2023-07-31T14:18:39;20.90;99.90
4399;DHT22;2213;49.720;7.296;2023-07-31T14:21:11;21.00;99.90
4399;DHT22;2213;49.720;7.296;2023-07-31T14:23:40;21.20;99.90
4399;DHT22;2213;49.720;7.296;2023-07-31T14:26:09;21.10;99.90
4399;DHT22;2213;49.720;7.296;2023-07-31T14:28:39;21.00;99.90
4399;DHT22;2213;49.720;7.296;2023-07-31T14:31:09;21.00;99.90
4399;DHT22;2213;49.720;7.296;2023-07-31T14:33:40;21.10;99.90
4399;DHT22;2213;49.720;7.296;2023-07-31T14:36:11;20.90;99.90
4399;DHT22;2213;49.720;7.296;2023-07-31T14:38:41;21.10;99.90
4399;DHT22;2213;49.720;7.296;2023-07-31T14:41:11;21.10;99.90
4399;DHT22;2213;49.720;7.296;2023-07-31T14:43:41;21.10;99.90
4399;DHT22;2213;49.720;7.296;2023-07-31T14:46:11;21.10;99.90
4399;DHT22;2213;49.720;7.296;2023-07-31T14:48:42;21.10;99.90
4399;DHT22;2213;49.720;7.296;2023-07-31T14:51:12;21.10;99.90
4399;DHT22;2213;49.720;7.296;2023-07-31T14:53:41;21.10;99.90
4399;DHT22;2213;49.720;7.296;2023-07-31T14:56:11;21.10;99.90
4399;DHT22;2213;49.720;7.296;2023-07-31T14:58:42;21.10;99.90
4399;DHT22;2213;49.720;7.296;2023-07-31T15:01:12;21.20;99.90
4399;DHT22;2213;49.720;7.296;2023-07-31T15:03:43;21.10;99.90
4399;DHT22;2213;49.720;7.296;2023-07-31T15:06:13;21.00;99.90
4399;DHT22;2213;49.720;7.296;2023-07-31T15:08:43;20.90;99.90
4399;DHT22;2213;49.720;7.296;2023-07-31T15:11:14;20.90;99.90
4399;DHT22;2213;49.720;7.296;2023-07-31T15:13:45;20.90;99.90
4399;DHT22;2213;49.720;7.296;2023-07-31T15:16:14;20.90;99.90
4399;DHT22;2213;49.720;7.296;2023-07-31T15:18:44;20.90;99.90
4399;DHT22;2213;49.720;7.296;2023-07-31T15:21:13;20.90;99.90
4399;DHT22;2213;49.720;7.296;2023-07-31T15:23:42;20.60;99.90
4399;DHT22;2213;49.720;7.296;2023-07-31T15:26:10;20.60;99.90
4399;DHT22;2213;49.720;7.296;2023-07-31T15:28:39;20.80;99.90
4399;DHT22;2213;49.720;7.296;2023-07-31T15:31:08;20.70;99.90
4399;DHT22;2213;49.720;7.296;2023-07-31T15:33:37;20.60;99.90
4399;DHT22;2213;49.720;7.296;2023-07-31T15:36:07;20.50;99.90
4399;DHT22;2213;49.720;7.296;2023-07-31T15:38:36;20.60;99.90
4399;DHT22;2213;49.720;7.296;2023-07-31T15:41:06;20.50;99.90
4399;DHT22;2213;49.720;7.296;2023-07-31T15:43:36;20.50;99.90
4399;DHT22;2213;49.720;7.296;2023-07-31T15:46:06;20.50;99.90
4399;DHT22;2213;49.720;7.296;2023-07-31T15:48:40;20.60;99.90
4399;DHT22;2213;49.720;7.296;2023-07-31T15:51:11;20.50;99.90
4399;DHT22;2213;49.720;7.296;2023-07-31T15:53:42;20.50;99.90
4399;DHT22;2213;49.720;7.296;2023-07-31T15:56:11;20.40;99.90
4399;DHT22;2213;49.720;7.296;2023-07-31T15:58:42;20.40;99.90
4399;DHT22;2213;49.720;7.296;2023-07-31T16:01:11;20.40;99.90
4399;DHT22;2213;49.720;7.296;2023-07-31T16:03:42;20.30;99.90
4399;DHT22;2213;49.720;7.296;2023-07-31T16:06:13;20.30;99.90
4399;DHT22;2213;49.720;7.296;2023-07-31T16:08:43;20.40;99.90
4399;DHT22;2213;49.720;7.296;2023-07-31T16:11:12;20.30;99.90
4399;DHT22;2213;49.720;7.296;2023-07-31T16:13:43;20.30;99.90
4399;DHT22;2213;49.720;7.296;2023-07-31T16:16:13;20.20;99.90
4399;DHT22;2213;49.720;7.296;2023-07-31T16:18:42;20.30;99.90
4399;DHT22;2213;49.720;7.296;2023-07-31T16:21:15;20.30;99.90
4399;DHT22;2213;49.720;7.296;2023-07-31T16:23:46;20.30;99.90
4399;DHT22;2213;49.720;7.296;2023-07-31T16:26:15;20.10;99.90
4399;DHT22;2213;49.720;7.296;2023-07-31T16:28:45;20.10;99.90